createdAt,value
2023-02-18T00:01:51.686Z,100755.53
2023-02-18T00:04:19.618Z,100743.38
2023-02-18T00:06:47.663Z,100758.34
2023-02-18T00:09:15.520Z,100754.59
2023-02-18T00:11:43.601Z,100750.72
2023-02-18T00:14:17.418Z,100753.75
2023-02-18T00:16:46.080Z,100746.88
2023-02-18T00:19:19.465Z,100751.16
2023-02-18T00:21:47.958Z,100752.03
2023-02-18T00:24:17.096Z,100759.16
2023-02-18T00:26:45.637Z,100758.81
2023-02-18T00:29:13.584Z,100751.47
2023-02-18T00:31:41.703Z,100749.97
2023-02-18T00:34:12.298Z,100763.31
2023-02-18T00:36:41.084Z,100762.00
2023-02-18T00:39:11.364Z,100772.25
2023-02-18T00:41:40.126Z,100769.09
2023-02-18T00:44:09.290Z,100773.66
2023-02-18T00:46:40.820Z,100768.25
2023-02-18T00:49:09.797Z,100772.84
2023-02-18T00:51:37.804Z,100777.38
2023-02-18T00:54:05.810Z,100774.50
2023-02-18T00:56:33.901Z,100776.00
2023-02-18T00:59:01.842Z,100785.94
2023-02-18T01:01:29.860Z,100779.44
2023-02-18T01:03:57.974Z,100769.41
2023-02-18T01:06:25.868Z,100776.94
2023-02-18T01:08:53.864Z,100776.75
2023-02-18T01:11:21.713Z,100777.94
2023-02-18T01:13:49.740Z,100770.88
2023-02-18T01:16:18.059Z,100773.75
2023-02-18T01:18:45.996Z,100780.00
2023-02-18T01:21:14.067Z,100772.84
2023-02-18T01:23:42.560Z,100787.53
2023-02-18T01:26:11.636Z,100794.31
2023-02-18T01:28:41.608Z,100783.16
2023-02-18T01:31:13.415Z,100778.44
2023-02-18T01:33:42.670Z,100775.84
2023-02-18T01:36:11.999Z,100771.38
2023-02-18T01:38:40.058Z,100779.34
2023-02-18T01:41:08.584Z,100764.13
2023-02-18T01:43:37.386Z,100768.38
2023-02-18T01:46:22.370Z,100769.44
2023-02-18T01:49:00.277Z,100768.28
2023-02-18T01:51:43.624Z,100768.03
2023-02-18T01:54:27.416Z,100763.19
2023-02-18T01:57:04.942Z,100772.56
2023-02-18T01:59:48.822Z,100784.38
2023-02-18T02:02:28.474Z,100780.84
2023-02-18T02:04:57.143Z,100775.06
2023-02-18T02:07:28.622Z,100778.16
2023-02-18T02:09:59.737Z,100775.47
2023-02-18T02:13:19.221Z,100791.63
2023-02-18T02:16:19.343Z,100784.72
2023-02-18T02:19:31.028Z,100786.69
2023-02-18T02:22:15.924Z,100782.72
2023-02-18T02:25:12.271Z,100786.31
2023-02-18T02:28:10.420Z,100779.00
2023-02-18T02:31:15.936Z,100784.19
2023-02-18T02:34:52.956Z,100771.72
2023-02-18T02:37:29.232Z,100790.31
2023-02-18T02:40:21.149Z,100789.28
2023-02-18T02:43:22.215Z,100796.25
2023-02-18T02:46:17.664Z,100788.06
2023-02-18T02:49:03.280Z,100801.28
2023-02-18T02:52:05.562Z,100803.53
2023-02-18T02:54:33.556Z,100800.16
2023-02-18T02:57:30.390Z,100788.06
2023-02-18T03:00:10.014Z,100801.75
2023-02-18T03:03:33.515Z,100804.44
2023-02-18T03:06:41.465Z,100805.94
2023-02-18T03:09:47.111Z,100795.34
2023-02-18T03:12:51.909Z,100799.56
2023-02-18T03:15:47.876Z,100817.44
2023-02-18T03:18:33.083Z,100806.47
2023-02-18T03:21:33.110Z,100813.53
2023-02-18T03:24:17.955Z,100811.47
2023-02-18T03:26:56.228Z,100801.59
2023-02-18T03:29:25.983Z,100809.25
2023-02-18T03:32:03.012Z,100807.03
2023-02-18T03:34:38.226Z,100813.72
2023-02-18T03:37:07.322Z,100808.31
2023-02-18T03:39:37.992Z,100805.63
2023-02-18T03:42:06.102Z,100808.88
2023-02-18T03:44:33.990Z,100812.66
2023-02-18T03:47:02.234Z,100823.44
2023-02-18T03:49:30.229Z,100817.66
2023-02-18T03:51:58.103Z,100821.31
2023-02-18T03:54:25.967Z,100814.84
2023-02-18T03:56:54.865Z,100815.19
2023-02-18T03:59:22.778Z,100810.00
2023-02-18T04:01:50.643Z,100819.09
2023-02-18T04:04:18.595Z,100818.19
2023-02-18T04:06:46.541Z,100820.28
2023-02-18T04:09:14.484Z,100825.22
2023-02-18T04:11:42.548Z,100820.94
2023-02-18T04:14:13.521Z,100821.91
2023-02-18T04:16:42.618Z,100832.88
2023-02-18T04:19:10.946Z,100833.84
2023-02-18T04:21:38.852Z,100840.56
2023-02-18T04:24:06.910Z,100836.16
2023-02-18T04:26:34.805Z,100844.19
2023-02-18T04:29:02.806Z,100845.72
2023-02-18T04:31:30.777Z,100846.63
2023-02-18T04:33:58.776Z,100853.75
2023-02-18T04:36:27.161Z,100850.06
2023-02-18T04:38:55.008Z,100846.19
2023-02-18T04:41:23.025Z,100860.34
2023-02-18T04:43:50.937Z,100850.31
2023-02-18T04:46:18.876Z,100853.84
2023-02-18T04:48:46.853Z,100848.34
2023-02-18T04:51:14.757Z,100847.97
2023-02-18T04:53:42.879Z,100848.44
2023-02-18T04:56:12.946Z,100853.50
2023-02-18T04:58:40.801Z,100849.09
2023-02-18T05:01:08.704Z,100848.94
2023-02-18T05:03:36.594Z,100854.34
2023-02-18T05:06:04.930Z,100851.94
2023-02-18T05:08:32.901Z,100848.19
2023-02-18T05:11:00.778Z,100843.78
2023-02-18T05:13:28.629Z,100840.06
2023-02-18T05:15:56.464Z,100848.63
2023-02-18T05:18:24.382Z,100851.41
2023-02-18T05:20:52.204Z,100846.31
2023-02-18T05:23:21.304Z,100853.00
2023-02-18T05:25:49.230Z,100844.72
2023-02-18T05:28:17.250Z,100840.66
2023-02-18T05:30:45.111Z,100846.59
2023-02-18T05:33:13.283Z,100839.44
2023-02-18T05:35:41.344Z,100832.13
2023-02-18T05:38:09.979Z,100829.81
2023-02-18T05:40:38.858Z,100823.69
2023-02-18T05:43:06.822Z,100825.25
2023-02-18T05:45:36.064Z,100826.53
2023-02-18T05:48:04.543Z,100834.53
2023-02-18T05:50:32.904Z,100828.59
2023-02-18T05:53:00.790Z,100823.59
2023-02-18T05:55:28.752Z,100835.09
2023-02-18T05:57:56.791Z,100842.56
2023-02-18T06:00:25.476Z,100837.69
2023-02-18T06:02:53.435Z,100827.63
2023-02-18T06:05:21.315Z,100837.28
2023-02-18T06:07:49.280Z,100828.66
2023-02-18T06:10:18.444Z,100839.19
2023-02-18T06:12:46.576Z,100835.09
2023-02-18T06:15:14.411Z,100833.78
2023-02-18T06:17:42.286Z,100835.66
2023-02-18T06:20:11.198Z,100830.06
2023-02-18T06:22:39.083Z,100835.00
2023-02-18T06:25:07.368Z,100829.97
2023-02-18T06:27:35.232Z,100829.03
2023-02-18T06:30:03.400Z,100839.44
2023-02-18T06:32:31.229Z,100838.97
2023-02-18T06:34:59.100Z,100827.09
2023-02-18T06:37:27.061Z,100824.38
2023-02-18T06:39:54.949Z,100820.47
2023-02-18T06:42:22.790Z,100824.66
2023-02-18T06:44:52.953Z,100814.50
2023-02-18T06:47:21.215Z,100817.28
2023-02-18T06:49:49.114Z,100816.81
2023-02-18T06:52:16.942Z,100815.00
2023-02-18T06:54:46.021Z,100822.78
2023-02-18T06:57:13.904Z,100814.72
2023-02-18T06:59:41.820Z,100821.06
2023-02-18T07:02:13.362Z,100818.53
2023-02-18T07:04:41.308Z,100826.91
2023-02-18T07:07:09.154Z,100822.09
2023-02-18T07:09:37.092Z,100815.88
2023-02-18T07:12:05.545Z,100803.56
2023-02-18T07:14:33.403Z,100805.56
2023-02-18T07:17:01.346Z,100801.69
2023-02-18T07:19:29.209Z,100804.63
2023-02-18T07:21:57.771Z,100802.91
2023-02-18T07:24:25.988Z,100802.16
2023-02-18T07:26:53.820Z,100794.03
2023-02-18T07:29:21.721Z,100794.75
2023-02-18T07:31:49.820Z,100800.28
2023-02-18T07:34:17.759Z,100799.50
2023-02-18T07:36:48.839Z,100804.06
2023-02-18T07:39:20.664Z,100797.78
2023-02-18T07:41:48.806Z,100791.78
2023-02-18T07:44:16.780Z,100781.47
2023-02-18T07:46:47.221Z,100781.97
2023-02-18T07:49:15.548Z,100774.91
2023-02-18T07:51:43.460Z,100774.06
2023-02-18T07:54:11.313Z,100786.06
2023-02-18T07:56:39.388Z,100782.63
2023-02-18T07:59:07.326Z,100775.13
2023-02-18T08:01:35.241Z,100786.41
2023-02-18T08:04:03.602Z,100779.19
2023-02-18T08:06:46.173Z,100770.63
2023-02-18T08:09:15.660Z,100758.94
2023-02-18T08:11:44.684Z,100767.72
2023-02-18T08:14:12.910Z,100748.75
2023-02-18T08:16:40.994Z,100756.56
2023-02-18T08:19:09.059Z,100747.16
2023-02-18T08:21:36.919Z,100739.16
2023-02-18T08:24:05.061Z,100727.97
2023-02-18T08:26:33.013Z,100727.75
2023-02-18T08:29:00.891Z,100721.28
2023-02-18T08:31:31.156Z,100723.78
2023-02-18T08:34:00.962Z,100725.66
2023-02-18T08:36:29.559Z,100717.97
2023-02-18T08:38:58.385Z,100719.41
2023-02-18T08:41:26.382Z,100716.31
2023-02-18T08:43:54.547Z,100715.66
2023-02-18T08:46:27.283Z,100717.75
2023-02-18T08:49:04.658Z,100711.56
2023-02-18T08:51:32.673Z,100710.72
2023-02-18T08:54:00.618Z,100711.47
2023-02-18T08:56:28.518Z,100712.47
2023-02-18T08:58:56.370Z,100713.44
2023-02-18T09:01:24.322Z,100696.25
2023-02-18T09:03:52.330Z,100697.94
2023-02-18T09:06:20.273Z,100700.22
2023-02-18T09:08:48.319Z,100702.53
2023-02-18T09:11:17.772Z,100705.66
2023-02-18T09:13:46.584Z,100703.78
2023-02-18T09:16:18.604Z,100696.47
2023-02-18T09:18:48.186Z,100704.19
2023-02-18T09:21:20.590Z,100702.78
2023-02-18T09:23:49.907Z,100682.47
2023-02-18T09:26:22.941Z,100691.59
2023-02-18T09:28:53.169Z,100681.78
2023-02-18T09:31:25.893Z,100682.19
2023-02-18T09:34:02.963Z,100680.06
2023-02-18T09:36:31.652Z,100688.00
2023-02-18T09:38:59.829Z,100679.47
2023-02-18T09:41:48.914Z,100680.41
2023-02-18T09:44:40.057Z,100679.38
2023-02-18T09:47:45.006Z,100671.75
2023-02-18T09:50:33.734Z,100664.03
2023-02-18T09:53:03.979Z,100637.56
2023-02-18T09:55:40.990Z,100631.88
2023-02-18T09:58:25.078Z,100628.06
2023-02-18T10:01:11.203Z,100621.59
2023-02-18T10:03:40.545Z,100606.50
2023-02-18T10:06:25.494Z,100603.88
2023-02-18T10:08:55.283Z,100609.31
2023-02-18T10:11:39.881Z,100586.97
2023-02-18T10:14:14.522Z,100599.88
2023-02-18T10:16:46.057Z,100592.75
2023-02-18T10:19:38.388Z,100585.72
2023-02-18T10:22:09.536Z,100573.00
2023-02-18T10:25:05.944Z,100593.19
2023-02-18T10:27:38.856Z,100566.94
2023-02-18T10:30:51.296Z,100548.59
2023-02-18T10:33:35.926Z,100537.47
2023-02-18T10:36:38.772Z,100522.53
2023-02-18T10:39:32.212Z,100510.72
2023-02-18T10:42:39.816Z,100494.66
2023-02-18T10:45:53.019Z,100481.38
2023-02-18T10:48:28.493Z,100466.41
2023-02-18T10:50:59.800Z,100462.59
2023-02-18T10:53:40.427Z,100454.88
2023-02-18T10:56:09.320Z,100447.34
2023-02-18T10:58:47.028Z,100446.53
2023-02-18T11:01:21.198Z,100449.06
2023-02-18T11:04:15.118Z,100441.06
2023-02-18T11:06:51.323Z,100428.63
2023-02-18T11:10:16.896Z,100415.81
2023-02-18T11:12:56.243Z,100405.38
2023-02-18T11:15:29.469Z,100388.06
2023-02-18T11:18:13.414Z,100387.25
2023-02-18T11:20:41.555Z,100377.59
2023-02-18T11:23:21.849Z,100369.75
2023-02-18T11:26:12.047Z,100361.00
2023-02-18T11:28:51.451Z,100363.25
2023-02-18T11:31:48.079Z,100351.16
2023-02-18T11:34:29.336Z,100349.47
2023-02-18T11:37:19.356Z,100333.81
2023-02-18T11:39:53.025Z,100341.88
2023-02-18T11:42:26.713Z,100328.47
2023-02-18T11:45:00.598Z,100319.38
2023-02-18T11:47:37.586Z,100313.31
2023-02-18T11:50:17.503Z,100300.97
2023-02-18T11:52:51.328Z,100303.81
2023-02-18T11:55:23.134Z,100283.97
2023-02-18T11:58:03.678Z,100303.34
2023-02-18T12:00:53.029Z,100267.03
2023-02-18T12:04:17.553Z,100292.16
2023-02-18T12:07:17.337Z,100256.13
2023-02-18T12:09:55.093Z,100244.00
2023-02-18T12:12:53.723Z,100239.25
2023-02-18T12:16:03.643Z,100262.84
2023-02-18T12:18:53.058Z,100249.16
2023-02-18T12:22:10.378Z,100226.03
2023-02-18T12:24:56.017Z,100232.63
2023-02-18T12:28:16.233Z,100230.34
2023-02-18T12:31:17.209Z,100217.47
2023-02-18T12:34:27.792Z,100198.72
2023-02-18T12:37:32.424Z,100200.97
2023-02-18T12:40:32.025Z,100181.84
2023-02-18T12:43:21.221Z,100173.59
2023-02-18T12:46:49.477Z,100174.94
2023-02-18T12:49:31.909Z,100169.75
2023-02-18T12:52:08.965Z,100163.59
2023-02-18T12:55:20.426Z,100159.09
2023-02-18T12:58:21.103Z,100151.41
2023-02-18T13:01:30.325Z,100143.84
2023-02-18T13:04:31.080Z,100136.59
2023-02-18T13:07:58.515Z,100126.56
2023-02-18T13:10:38.388Z,100118.91
2023-02-18T13:13:21.068Z,100106.59
2023-02-18T13:16:09.205Z,100100.31
2023-02-18T13:19:03.645Z,100102.66
2023-02-18T13:21:35.274Z,100096.72
2023-02-18T13:24:11.941Z,100086.59
2023-02-18T13:26:50.966Z,100089.50
2023-02-18T13:30:00.241Z,100086.38
2023-02-18T13:32:59.615Z,100089.50
2023-02-18T13:36:16.581Z,100073.28
2023-02-18T13:39:19.264Z,100071.06
2023-02-18T13:41:51.117Z,100069.56
2023-02-18T13:44:24.603Z,100059.25
2023-02-18T13:46:59.092Z,100059.38
2023-02-18T13:49:38.085Z,100053.47
2023-02-18T13:52:07.439Z,100052.50
2023-02-18T13:54:46.833Z,100058.28
2023-02-18T13:57:22.964Z,100057.03
2023-02-18T14:00:06.069Z,100052.75
2023-02-18T14:02:37.225Z,100052.91
2023-02-18T14:05:40.786Z,100039.28
2023-02-18T14:08:39.218Z,100046.69
2023-02-18T14:11:13.671Z,100046.44
2023-02-18T14:14:27.395Z,100050.16
2023-02-18T14:17:22.967Z,100049.47
2023-02-18T14:19:59.926Z,100050.16
2023-02-18T14:22:50.402Z,100050.34
2023-02-18T14:25:39.264Z,100053.34
2023-02-18T14:28:36.663Z,100064.34
2023-02-18T14:31:14.023Z,100052.06
2023-02-18T14:33:59.597Z,100046.84
2023-02-18T14:37:24.351Z,100054.44
2023-02-18T14:40:36.091Z,100058.69
2023-02-18T14:43:59.682Z,100074.31
2023-02-18T14:47:09.374Z,100065.75
2023-02-18T14:49:59.780Z,100073.75
2023-02-18T14:52:48.804Z,100071.66
2023-02-18T14:55:28.460Z,100046.16
2023-02-18T14:58:16.778Z,100045.06
2023-02-18T15:00:47.406Z,100066.00
2023-02-18T15:03:20.435Z,100068.06
2023-02-18T15:05:51.437Z,100060.34
2023-02-18T15:08:26.277Z,100071.09
2023-02-18T15:11:06.218Z,100080.56
2023-02-18T15:13:44.254Z,100091.34
2023-02-18T15:16:34.409Z,100132.63
2023-02-18T15:19:13.619Z,100141.50
2023-02-18T15:21:53.052Z,100144.19
2023-02-18T15:24:38.063Z,100155.13
2023-02-18T15:27:21.987Z,100151.41
2023-02-18T15:30:08.604Z,100154.88
2023-02-18T15:32:53.366Z,100182.59
2023-02-18T15:35:29.113Z,100176.19
2023-02-18T15:38:01.332Z,100187.78
2023-02-18T15:41:02.791Z,100194.75
2023-02-18T15:44:28.722Z,100206.06
2023-02-18T15:47:38.692Z,100211.75
2023-02-18T15:50:35.601Z,100210.44
2023-02-18T15:54:00.660Z,100231.94
2023-02-18T16:00:42.723Z,100243.63
2023-02-18T16:03:42.102Z,100241.41
2023-02-18T16:06:35.286Z,100238.22
2023-02-18T16:09:29.678Z,100257.53
2023-02-18T16:12:03.553Z,100266.91
2023-02-18T16:14:50.640Z,100272.13
2023-02-18T16:17:26.491Z,100295.91
2023-02-18T16:20:22.012Z,100292.19
2023-02-18T16:22:58.801Z,100294.47
2023-02-18T16:25:51.672Z,100303.53
2023-02-18T16:28:34.007Z,100313.59
2023-02-18T16:31:09.663Z,100301.69
2023-02-18T16:33:40.433Z,100315.97
2023-02-18T16:36:16.387Z,100330.59
2023-02-18T16:38:49.522Z,100343.28
2023-02-18T16:41:20.514Z,100343.81
2023-02-18T16:43:54.041Z,100344.09
2023-02-18T16:46:24.446Z,100351.91
2023-02-18T16:48:56.297Z,100350.53
2023-02-18T16:51:35.140Z,100366.53
2023-02-18T16:54:03.672Z,100369.34
2023-02-18T16:56:36.155Z,100371.91
2023-02-18T16:59:05.035Z,100384.78
2023-02-18T17:01:38.185Z,100398.53
2023-02-18T17:04:07.404Z,100407.03
2023-02-18T17:06:35.297Z,100416.84
2023-02-18T17:09:15.074Z,100426.25
2023-02-18T17:11:52.190Z,100430.19
2023-02-18T17:14:22.662Z,100447.81
2023-02-18T17:16:54.395Z,100461.06
2023-02-18T17:19:22.729Z,100462.50
2023-02-18T17:21:50.789Z,100482.63
2023-02-18T17:24:19.584Z,100478.25
2023-02-18T17:26:47.901Z,100489.50
2023-02-18T17:29:15.953Z,100488.34
2023-02-18T17:31:47.311Z,100493.31
2023-02-18T17:34:27.751Z,100497.81
2023-02-18T17:36:55.682Z,100514.88
2023-02-18T17:39:24.530Z,100515.81
2023-02-18T17:41:52.445Z,100520.38
2023-02-18T17:44:24.003Z,100520.00
2023-02-18T17:46:55.107Z,100528.69
2023-02-18T17:49:23.363Z,100533.91
2023-02-18T17:51:52.500Z,100533.94
2023-02-18T17:54:25.696Z,100534.47
2023-02-18T17:56:55.636Z,100526.56
2023-02-18T17:59:23.508Z,100539.38
2023-02-18T18:01:51.397Z,100538.47
2023-02-18T18:04:19.627Z,100542.84
2023-02-18T18:06:47.689Z,100545.19
2023-02-18T18:09:15.544Z,100556.13
2023-02-18T18:11:44.016Z,100552.53
2023-02-18T18:14:15.144Z,100563.03
2023-02-18T18:16:43.206Z,100563.69
2023-02-18T18:19:11.142Z,100571.78
2023-02-18T18:21:39.179Z,100566.28
2023-02-18T18:24:07.222Z,100573.38
2023-02-18T18:26:35.104Z,100585.94
2023-02-18T18:29:02.977Z,100586.59
2023-02-18T18:31:32.199Z,100601.13
2023-02-18T18:34:01.305Z,100605.47
2023-02-18T18:36:29.205Z,100589.31
2023-02-18T18:38:57.376Z,100603.03
2023-02-18T18:41:25.192Z,100617.84
2023-02-18T18:43:53.352Z,100615.97
2023-02-18T18:46:21.423Z,100625.28
2023-02-18T18:48:49.344Z,100625.47
2023-02-18T18:51:25.142Z,100618.09
2023-02-18T18:53:52.983Z,100625.50
2023-02-18T18:56:21.870Z,100628.50
2023-02-18T18:58:51.251Z,100615.69
2023-02-18T19:01:26.905Z,100631.56
2023-02-18T19:03:55.007Z,100644.75
2023-02-18T19:06:23.053Z,100636.94
2023-02-18T19:08:50.987Z,100640.59
2023-02-18T19:11:18.844Z,100640.31
2023-02-18T19:13:46.760Z,100641.53
2023-02-18T19:16:30.766Z,100647.50
2023-02-18T19:18:58.630Z,100662.81
2023-02-18T19:21:26.476Z,100657.88
2023-02-18T19:23:54.719Z,100661.44
2023-02-18T19:26:23.232Z,100672.56
2023-02-18T19:28:51.140Z,100676.22
2023-02-18T19:31:23.989Z,100673.44
2023-02-18T19:33:59.202Z,100679.13
2023-02-18T19:36:27.009Z,100676.34
2023-02-18T19:38:54.863Z,100678.47
2023-02-18T19:41:22.723Z,100688.09
2023-02-18T19:43:50.601Z,100684.03
2023-02-18T19:46:19.119Z,100683.16
2023-02-18T19:48:52.560Z,100690.63
2023-02-18T19:51:24.744Z,100682.63
2023-02-18T19:53:52.922Z,100684.81
2023-02-18T19:56:21.386Z,100682.94
2023-02-18T19:58:49.293Z,100696.38
2023-02-18T20:01:18.266Z,100698.47
2023-02-18T20:03:47.149Z,100697.19
2023-02-18T20:06:19.205Z,100700.69
2023-02-18T20:08:47.899Z,100700.59
2023-02-18T20:11:16.406Z,100704.97
2023-02-18T20:13:44.277Z,100706.09
2023-02-18T20:16:12.183Z,100708.22
2023-02-18T20:18:40.146Z,100703.66
2023-02-18T20:21:12.153Z,100714.91
2023-02-18T20:23:41.116Z,100714.66
2023-02-18T20:26:12.156Z,100724.41
2023-02-18T20:28:40.664Z,100731.47
2023-02-18T20:31:13.063Z,100735.81
2023-02-18T20:33:42.565Z,100736.66
2023-02-18T20:36:14.412Z,100731.16
2023-02-18T20:38:42.549Z,100726.72
2023-02-18T20:41:14.518Z,100732.22
2023-02-18T20:43:42.513Z,100734.38
2023-02-18T20:46:17.925Z,100742.63
2023-02-18T20:48:46.951Z,100739.50
2023-02-18T20:51:20.421Z,100749.53
2023-02-18T20:53:49.616Z,100752.31
2023-02-18T20:56:21.478Z,100754.09
2023-02-18T20:58:49.473Z,100755.66
2023-02-18T21:01:18.969Z,100758.56
2023-02-18T21:03:48.265Z,100759.88
2023-02-18T21:06:20.834Z,100760.44
2023-02-18T21:08:53.568Z,100758.88
2023-02-18T21:11:26.315Z,100753.25
2023-02-18T21:13:57.004Z,100753.16
2023-02-18T21:16:28.625Z,100755.75
2023-02-18T21:18:56.514Z,100757.25
2023-02-18T21:21:24.852Z,100767.72
2023-02-18T21:23:53.466Z,100762.50
2023-02-18T21:26:26.408Z,100770.41
2023-02-18T21:29:01.038Z,100777.00
2023-02-18T21:31:39.465Z,100772.88
2023-02-18T21:34:11.976Z,100766.25
2023-02-18T21:36:41.338Z,100768.25
2023-02-18T21:39:11.140Z,100766.25
2023-02-18T21:41:41.102Z,100778.91
2023-02-18T21:44:10.310Z,100767.56
2023-02-18T21:46:39.024Z,100772.22
2023-02-18T21:49:10.081Z,100768.25
2023-02-18T21:51:58.666Z,100771.25
2023-02-18T21:54:47.069Z,100779.47
2023-02-18T21:57:19.737Z,100773.66
2023-02-18T21:59:50.235Z,100759.69
2023-02-18T22:02:30.922Z,100766.91
2023-02-18T22:05:02.046Z,100756.84
2023-02-18T22:07:30.377Z,100760.34
2023-02-18T22:09:58.261Z,100765.69
2023-02-18T22:12:26.403Z,100770.31
2023-02-18T22:14:54.274Z,100771.19
2023-02-18T22:17:22.259Z,100779.47
2023-02-18T22:19:50.175Z,100780.16
2023-02-18T22:22:18.234Z,100783.22
2023-02-18T22:24:46.108Z,100791.19
2023-02-18T22:27:15.931Z,100795.44
2023-02-18T22:29:43.774Z,100796.63
2023-02-18T22:32:11.650Z,100789.06
2023-02-18T22:34:40.151Z,100790.47
2023-02-18T22:37:08.125Z,100790.09
2023-02-18T22:39:36.131Z,100789.16
2023-02-18T22:42:04.527Z,100781.97
2023-02-18T22:44:32.515Z,100779.41
2023-02-18T22:47:00.391Z,100786.59
2023-02-18T22:49:28.273Z,100783.97
2023-02-18T22:51:56.205Z,100787.91
2023-02-18T22:54:24.124Z,100777.66
2023-02-18T22:56:53.785Z,100775.06
2023-02-18T22:59:21.671Z,100781.25
2023-02-18T23:01:49.969Z,100776.31
2023-02-18T23:04:20.524Z,100773.97
2023-02-18T23:06:49.621Z,100773.00
2023-02-18T23:09:25.095Z,100773.25
2023-02-18T23:11:58.032Z,100768.16
2023-02-18T23:14:28.274Z,100773.06
2023-02-18T23:17:13.057Z,100773.53
2023-02-18T23:19:43.316Z,100770.84
2023-02-18T23:22:15.155Z,100774.91
2023-02-18T23:24:45.473Z,100769.44
2023-02-18T23:27:15.367Z,100774.47
2023-02-18T23:29:43.709Z,100780.53
2023-02-18T23:32:11.834Z,100784.72
2023-02-18T23:34:39.660Z,100786.56
2023-02-18T23:37:07.605Z,100776.16
2023-02-18T23:39:36.820Z,100774.69
2023-02-18T23:42:04.847Z,100778.91
2023-02-18T23:44:32.723Z,100768.44
2023-02-18T23:47:00.576Z,100776.16
2023-02-18T23:49:28.828Z,100774.53
2023-02-18T23:51:58.057Z,100775.94
2023-02-18T23:54:26.143Z,100780.03
2023-02-18T23:56:54.061Z,100768.63
2023-02-18T23:59:22.004Z,100775.94
